createdAt,value
2019-05-30T00:00:37.576Z,96.21582
2019-05-30T00:01:47.157Z,96.21582
2019-05-30T00:02:57.138Z,96.21582
2019-05-30T00:04:06.184Z,96.118164
2019-05-30T00:05:15.705Z,96.118164
2019-05-30T00:06:25.254Z,96.118164
2019-05-30T00:07:34.766Z,96.21582
2019-05-30T00:08:44.310Z,96.31958
2019-05-30T00:09:54.255Z,96.42334
2019-05-30T00:11:04.658Z,96.42334
2019-05-30T00:12:12.885Z,96.42334
2019-05-30T00:13:22.422Z,96.5271
2019-05-30T00:14:31.944Z,96.5271
2019-05-30T00:15:41.459Z,96.42334
2019-05-30T00:16:50.997Z,96.5271
2019-05-30T00:18:00.907Z,96.5271
2019-05-30T00:19:10.113Z,96.5271
2019-05-30T00:20:19.636Z,96.630859
2019-05-30T00:21:29.158Z,96.630859
2019-05-30T00:22:38.704Z,96.728516
2019-05-30T00:23:48.212Z,96.777344
2019-05-30T00:24:57.952Z,96.881104
2019-05-30T00:26:07.540Z,96.832275
2019-05-30T00:27:16.797Z,96.832275
2019-05-30T00:28:26.294Z,96.832275
2019-05-30T00:29:35.809Z,96.832275
2019-05-30T00:30:45.337Z,96.97876
2019-05-30T00:31:55.470Z,96.936035
2019-05-30T00:33:05.131Z,96.936035
2019-05-30T00:34:13.885Z,96.936035
2019-05-30T00:35:23.421Z,96.97876
2019-05-30T00:36:32.936Z,96.936035
2019-05-30T00:37:42.472Z,96.936035
2019-05-30T00:38:52.067Z,96.936035
2019-05-30T00:40:02.093Z,96.881104
2019-05-30T00:41:11.057Z,96.881104
2019-05-30T00:42:20.572Z,96.881104
2019-05-30T00:43:30.084Z,96.881104
2019-05-30T00:44:39.593Z,96.881104
2019-05-30T00:45:49.109Z,96.881104
2019-05-30T00:46:58.624Z,96.881104
2019-05-30T00:48:08.142Z,96.881104
2019-05-30T00:49:17.642Z,96.881104
2019-05-30T00:50:27.157Z,96.97876
2019-05-30T00:51:36.690Z,96.97876
2019-05-30T00:52:46.227Z,96.97876
2019-05-30T00:53:56.459Z,96.97876
2019-05-30T00:55:05.252Z,97.08252
2019-05-30T00:56:14.763Z,97.08252
2019-05-30T00:57:23.305Z,97.08252
2019-05-30T00:58:32.819Z,97.186279
2019-05-30T00:59:42.343Z,97.186279
2019-05-30T01:00:51.847Z,97.290039
2019-05-30T01:02:01.354Z,97.290039
2019-05-30T01:03:11.063Z,97.393799
2019-05-30T01:04:20.417Z,97.393799
2019-05-30T01:05:29.917Z,97.393799
2019-05-30T01:06:39.457Z,97.540283
2019-05-30T01:07:49.005Z,97.540283
2019-05-30T01:08:59.049Z,97.540283
2019-05-30T01:10:08.037Z,97.644043
2019-05-30T01:11:17.551Z,97.644043
2019-05-30T01:12:27.093Z,97.741699
2019-05-30T01:13:36.627Z,97.741699
2019-05-30T01:14:46.151Z,97.845459
2019-05-30T01:15:56.829Z,97.845459
2019-05-30T01:17:07.348Z,97.949219
2019-05-30T01:18:15.702Z,98.052979
2019-05-30T01:19:25.229Z,98.095703
2019-05-30T01:20:34.744Z,98.199463
2019-05-30T01:21:44.278Z,98.199463
2019-05-30T01:22:53.809Z,98.303223
2019-05-30T01:24:05.618Z,98.406982
2019-05-30T01:25:13.802Z,98.608398
2019-05-30T01:26:23.325Z,98.510742
2019-05-30T01:27:32.842Z,98.657227
2019-05-30T01:28:42.394Z,98.760986
2019-05-30T01:29:51.906Z,98.858643
2019-05-30T01:31:05.431Z,98.962402
2019-05-30T01:32:12.883Z,98.962402
2019-05-30T01:33:22.432Z,98.962402
2019-05-30T01:34:31.934Z,98.962402
2019-05-30T01:35:41.460Z,99.066162
2019-05-30T01:36:50.986Z,98.962402
2019-05-30T01:38:01.739Z,99.066162
2019-05-30T01:39:10.990Z,99.169922
2019-05-30T01:40:20.530Z,99.11499
2019-05-30T01:41:30.076Z,99.11499
2019-05-30T01:42:39.595Z,99.212646
2019-05-30T01:43:49.133Z,99.11499
2019-05-30T01:45:00.110Z,99.316406
2019-05-30T01:46:09.111Z,99.420166
2019-05-30T01:47:18.626Z,99.316406
2019-05-30T01:48:28.146Z,99.420166
2019-05-30T01:49:37.670Z,99.523926
2019-05-30T01:50:47.200Z,99.572754
2019-05-30T01:51:56.706Z,99.523926
2019-05-30T01:53:06.685Z,99.67041
2019-05-30T01:54:15.750Z,99.67041
2019-05-30T01:55:25.282Z,99.67041
2019-05-30T01:56:34.791Z,99.77417
2019-05-30T01:57:44.307Z,99.87793
2019-05-30T01:58:53.853Z,99.981689
2019-05-30T02:00:07.647Z,99.993896
2019-05-30T02:01:23.945Z,99.981689
2019-05-30T02:02:24.385Z,99.993896
2019-05-30T02:03:33.918Z,99.993896
2019-05-30T02:04:43.444Z,99.993896
2019-05-30T02:05:52.951Z,99.993896
2019-05-30T02:07:03.184Z,99.993896
2019-05-30T02:08:11.972Z,99.993896
2019-05-30T02:09:21.496Z,99.993896
2019-05-30T02:10:31.013Z,99.993896
2019-05-30T02:11:40.525Z,99.993896
2019-05-30T02:12:50.102Z,99.993896
2019-05-30T02:13:59.666Z,99.993896
2019-05-30T02:15:09.964Z,99.993896
2019-05-30T02:16:18.681Z,99.993896
2019-05-30T02:17:28.193Z,99.993896
2019-05-30T02:18:37.726Z,99.993896
2019-05-30T02:19:47.243Z,99.993896
2019-05-30T02:20:56.766Z,99.993896
2019-05-30T02:22:07.931Z,99.993896
2019-05-30T02:23:16.872Z,99.993896
2019-05-30T02:24:26.391Z,99.993896
2019-05-30T02:25:35.907Z,99.993896
2019-05-30T02:26:45.433Z,99.993896
2019-05-30T02:27:55.934Z,99.993896
2019-05-30T02:29:06.234Z,99.993896
2019-05-30T02:30:15.233Z,99.993896
2019-05-30T02:31:38.140Z,99.993896
2019-05-30T02:32:34.946Z,99.993896
2019-05-30T02:33:44.473Z,99.993896
2019-05-30T02:34:53.993Z,99.993896
2019-05-30T02:36:05.453Z,99.993896
2019-05-30T02:37:13.956Z,99.993896
2019-05-30T02:38:23.470Z,99.993896
2019-05-30T02:39:33.004Z,99.993896
2019-05-30T02:40:42.542Z,99.993896
2019-05-30T02:41:52.066Z,99.993896
2019-05-30T02:43:03.382Z,99.993896
2019-05-30T02:44:12.545Z,99.993896
2019-05-30T02:45:21.577Z,99.993896
2019-05-30T02:46:31.118Z,99.993896
2019-05-30T02:47:40.634Z,99.993896
2019-05-30T02:48:58.581Z,99.993896
2019-05-30T02:50:01.469Z,99.993896
2019-05-30T02:51:12.624Z,99.993896
2019-05-30T02:52:20.646Z,99.993896
2019-05-30T02:53:30.159Z,99.993896
2019-05-30T02:54:39.689Z,99.993896
2019-05-30T02:55:50.214Z,99.993896
2019-05-30T02:57:01.221Z,99.993896
2019-05-30T02:58:10.934Z,99.993896
2019-05-30T02:59:19.739Z,99.993896
2019-05-30T03:00:29.286Z,99.993896
2019-05-30T03:01:58.754Z,99.993896
2019-05-30T03:02:49.324Z,99.993896
2019-05-30T03:03:58.872Z,99.993896
2019-05-30T03:05:12.558Z,99.993896
2019-05-30T03:06:19.852Z,99.993896
2019-05-30T03:07:29.366Z,99.993896
2019-05-30T03:08:38.893Z,99.993896
2019-05-30T03:09:48.423Z,99.993896
2019-05-30T03:10:57.938Z,99.993896
2019-05-30T03:12:08.997Z,99.993896
2019-05-30T03:13:18.904Z,99.993896
2019-05-30T03:14:28.438Z,99.993896
2019-05-30T03:15:37.999Z,99.993896
2019-05-30T03:16:47.513Z,99.993896
2019-05-30T03:17:57.041Z,99.993896
2019-05-30T03:19:08.406Z,99.993896
2019-05-30T03:20:22.459Z,99.993896
2019-05-30T03:21:28.509Z,99.993896
2019-05-30T03:22:38.031Z,99.993896
2019-05-30T03:23:48.544Z,99.993896
2019-05-30T03:24:58.082Z,99.993896
2019-05-30T03:26:10.595Z,99.993896
2019-05-30T03:27:19.039Z,99.993896
2019-05-30T03:28:28.553Z,99.993896
2019-05-30T03:29:40.485Z,99.993896
2019-05-30T03:30:49.463Z,99.993896
2019-05-30T03:32:29.321Z,99.993896
2019-05-30T03:33:23.997Z,99.993896
2019-05-30T03:34:27.203Z,99.993896
2019-05-30T03:35:35.610Z,99.993896
2019-05-30T03:36:40.900Z,99.993896
2019-05-30T03:37:50.432Z,99.993896
2019-05-30T03:38:59.947Z,99.993896
2019-05-30T03:40:10.460Z,99.993896
2019-05-30T03:41:19.974Z,99.993896
2019-05-30T03:42:29.489Z,99.993896
2019-05-30T03:43:39.022Z,99.993896
2019-05-30T03:44:48.574Z,99.993896
2019-05-30T03:45:58.091Z,99.993896
2019-05-30T03:47:11.005Z,99.993896
2019-05-30T03:48:19.081Z,99.993896
2019-05-30T03:49:29.580Z,99.993896
2019-05-30T03:50:39.104Z,99.993896
2019-05-30T03:51:48.618Z,99.993896
2019-05-30T03:52:58.154Z,99.993896
2019-05-30T03:54:09.287Z,99.993896
2019-05-30T03:55:18.129Z,99.993896
2019-05-30T03:56:27.630Z,99.993896
2019-05-30T03:57:37.163Z,99.993896
2019-05-30T03:58:46.691Z,99.993896
2019-05-30T03:59:56.253Z,99.993896
2019-05-30T04:01:06.018Z,99.993896
2019-05-30T04:02:15.698Z,99.993896
2019-05-30T04:03:24.792Z,99.993896
2019-05-30T04:04:34.330Z,99.993896
2019-05-30T04:05:43.863Z,99.993896
2019-05-30T04:06:53.357Z,99.993896
2019-05-30T04:08:02.865Z,99.993896
2019-05-30T04:09:19.172Z,99.993896
2019-05-30T04:10:23.849Z,99.993896
2019-05-30T04:11:33.361Z,99.993896
2019-05-30T04:12:42.880Z,99.993896
2019-05-30T04:13:52.399Z,99.993896
2019-05-30T04:15:01.895Z,99.993896
2019-05-30T04:16:13.485Z,99.993896
2019-05-30T04:17:21.898Z,99.993896
2019-05-30T04:18:31.396Z,99.993896
2019-05-30T04:19:40.916Z,99.993896
2019-05-30T04:20:50.434Z,99.993896
2019-05-30T04:21:59.950Z,99.993896
2019-05-30T04:23:10.817Z,99.993896
2019-05-30T04:24:19.944Z,99.993896
2019-05-30T04:25:29.459Z,99.993896
2019-05-30T04:26:39.025Z,99.993896
2019-05-30T04:27:48.561Z,99.993896
2019-05-30T04:28:58.080Z,99.993896
2019-05-30T04:30:07.853Z,99.993896
2019-05-30T04:31:19.148Z,99.993896
2019-05-30T04:32:26.619Z,99.993896
2019-05-30T04:33:36.141Z,99.993896
2019-05-30T04:34:46.200Z,99.993896
2019-05-30T04:35:56.005Z,99.993896
2019-05-30T04:37:05.523Z,99.981689
2019-05-30T04:38:17.069Z,99.981689
2019-05-30T04:39:25.570Z,99.67041
2019-05-30T04:40:36.075Z,99.572754
2019-05-30T04:41:45.629Z,99.572754
2019-05-30T04:42:55.176Z,99.468994
2019-05-30T04:44:04.693Z,99.468994
2019-05-30T04:45:15.922Z,99.261475
2019-05-30T04:46:25.733Z,99.157715
2019-05-30T04:47:35.262Z,99.053955
2019-05-30T04:48:44.799Z,99.01123
2019-05-30T04:49:54.323Z,98.907471
2019-05-30T04:51:03.839Z,98.803711
2019-05-30T04:52:16.168Z,98.803711
2019-05-30T04:53:23.848Z,98.760986
2019-05-30T04:54:33.350Z,98.553467
2019-05-30T04:55:42.854Z,98.248291
2019-05-30T04:56:52.390Z,97.937012
2019-05-30T04:58:01.898Z,97.937012
2019-05-30T04:59:12.902Z,97.937012
2019-05-30T05:00:21.890Z,97.937012
2019-05-30T05:01:31.447Z,97.894287
2019-05-30T05:02:40.962Z,97.583008
2019-05-30T05:03:50.496Z,97.479248
2019-05-30T05:05:00.040Z,97.381592
2019-05-30T05:06:09.560Z,97.381592
2019-05-30T05:07:19.807Z,97.332764
2019-05-30T05:08:28.591Z,96.923828
2019-05-30T05:09:38.115Z,96.923828
2019-05-30T05:10:47.624Z,96.923828
2019-05-30T05:11:57.171Z,96.820068
2019-05-30T05:13:06.689Z,96.820068
2019-05-30T05:14:18.444Z,96.569824
2019-05-30T05:15:27.702Z,96.466064
2019-05-30T05:16:37.229Z,95.953369
2019-05-30T05:17:46.752Z,95.751953
2019-05-30T05:18:56.262Z,95.855713
2019-05-30T05:20:05.791Z,95.855713
2019-05-30T05:21:15.320Z,95.855713
2019-05-30T05:22:24.829Z,95.751953
2019-05-30T05:23:34.356Z,95.751953
2019-05-30T05:24:43.884Z,95.605469
2019-05-30T05:26:00.651Z,95.196533
2019-05-30T05:27:03.893Z,95.092773
2019-05-30T05:28:15.652Z,94.885254
2019-05-30T05:29:24.860Z,94.781494
2019-05-30T05:30:34.419Z,94.781494
2019-05-30T05:31:43.938Z,94.781494
2019-05-30T05:32:53.466Z,94.885254
2019-05-30T05:34:02.983Z,94.842529
2019-05-30T05:35:12.503Z,94.537354
2019-05-30T05:36:23.043Z,94.537354
2019-05-30T05:37:31.583Z,94.63501
2019-05-30T05:38:41.118Z,94.63501
2019-05-30T05:39:50.630Z,94.329834
2019-05-30T05:41:00.148Z,94.07959
2019-05-30T05:42:09.684Z,93.774414
2019-05-30T05:43:20.269Z,93.566895
2019-05-30T05:44:29.673Z,93.365479
2019-05-30T05:45:39.209Z,92.401123
2019-05-30T05:46:48.738Z,92.401123
2019-05-30T05:47:58.284Z,92.095947
2019-05-30T05:49:07.818Z,91.784668
2019-05-30T05:50:18.393Z,91.479492
2019-05-30T05:51:28.924Z,91.229248
2019-05-30T05:52:37.332Z,91.333008
2019-05-30T05:53:46.859Z,91.644287
2019-05-30T05:54:56.375Z,91.229248
2019-05-30T05:56:05.899Z,90.106201
2019-05-30T05:57:16.656Z,90.209961
2019-05-30T05:58:26.357Z,89.39209
2019-05-30T05:59:35.442Z,89.49585
2019-05-30T06:00:44.959Z,89.654541
2019-05-30T06:01:54.497Z,89.758301
2019-05-30T06:03:04.004Z,89.349365
2019-05-30T06:04:13.871Z,89.349365
2019-05-30T06:05:24.343Z,89.245605
2019-05-30T06:06:33.619Z,89.001465
2019-05-30T06:07:43.158Z,88.696289
2019-05-30T06:08:52.669Z,89.001465
2019-05-30T06:10:02.190Z,88.95874
2019-05-30T06:11:11.724Z,87.634277
2019-05-30T06:12:21.720Z,87.530518
2019-05-30T06:13:30.758Z,86.712646
2019-05-30T06:14:40.294Z,87.121582
2019-05-30T06:15:49.819Z,85.894775
2019-05-30T06:16:59.356Z,86.102295
2019-05-30T06:18:08.883Z,85.858154
2019-05-30T06:19:19.090Z,85.754395
2019-05-30T06:20:27.917Z,86.260986
2019-05-30T06:21:51.024Z,86.224365
2019-05-30T06:22:47.924Z,84.796143
2019-05-30T06:23:57.440Z,84.588623
2019-05-30T06:25:06.982Z,83.776855
2019-05-30T06:26:17.668Z,81.591797
2019-05-30T06:27:27.898Z,81.494141
2019-05-30T06:28:36.479Z,80.981445
2019-05-30T06:29:45.983Z,80.230713
2019-05-30T06:30:58.630Z,77.783203
2019-05-30T06:32:05.039Z,77.270508
2019-05-30T06:33:14.564Z,77.746582
2019-05-30T06:34:32.176Z,76.928711
2019-05-30T06:35:34.589Z,77.337646
2019-05-30T06:36:44.120Z,78.424072
2019-05-30T06:37:53.671Z,77.709961
2019-05-30T06:39:03.186Z,78.015137
2019-05-30T06:40:12.732Z,76.959229
2019-05-30T06:41:22.239Z,76.147461
2019-05-30T06:42:31.797Z,74.890137
2019-05-30T06:43:41.327Z,74.688721
2019-05-30T06:44:50.836Z,74.54834
2019-05-30T06:46:00.357Z,73.327637
2019-05-30T06:47:09.885Z,73.632812
2019-05-30T06:48:20.611Z,73.535156
2019-05-30T06:49:31.012Z,72.106934
2019-05-30T06:50:39.370Z,72.686768
2019-05-30T06:51:48.914Z,73.394775
2019-05-30T06:52:58.424Z,71.362305
2019-05-30T06:54:07.934Z,73.0896
2019-05-30T06:55:17.444Z,72.479248
2019-05-30T06:56:27.429Z,72.277832
2019-05-30T06:57:36.495Z,71.160889
2019-05-30T06:58:48.918Z,72.076416
2019-05-30T06:59:56.483Z,71.868896
2019-05-30T07:01:05.995Z,70.721436
2019-05-30T07:02:15.526Z,68.859863
2019-05-30T07:03:26.190Z,67.913818
2019-05-30T07:04:50.666Z,67.474365
2019-05-30T07:05:46.376Z,66.864014
2019-05-30T07:06:55.722Z,66.63208
2019-05-30T07:08:05.023Z,66.668701
2019-05-30T07:09:14.530Z,65.020752
2019-05-30T07:10:24.849Z,63.195801
2019-05-30T07:11:33.601Z,63.226318
2019-05-30T07:12:43.111Z,62.414551
2019-05-30T07:13:52.614Z,62.182617
2019-05-30T07:15:02.126Z,60.705566
2019-05-30T07:16:11.641Z,61.486816
2019-05-30T07:17:21.182Z,60.980225
2019-05-30T07:18:33.624Z,61.462402
2019-05-30T07:19:41.152Z,61.431885
2019-05-30T07:20:50.674Z,60.491943
2019-05-30T07:22:00.189Z,59.93042
2019-05-30T07:23:09.699Z,61.920166
2019-05-30T07:24:19.225Z,61.114502
2019-05-30T07:25:29.789Z,61.083984
2019-05-30T07:26:39.215Z,58.233643
2019-05-30T07:27:48.761Z,58.709717
2019-05-30T07:29:00.608Z,57.904053
2019-05-30T07:30:07.763Z,56.896973
2019-05-30T07:31:17.275Z,58.209229
2019-05-30T07:32:27.869Z,55.914307
2019-05-30T07:33:37.263Z,57.653809
2019-05-30T07:34:46.761Z,55.969238
2019-05-30T07:35:57.257Z,55.493164
2019-05-30T07:37:06.812Z,55.13916
2019-05-30T07:38:16.353Z,56.530762
2019-05-30T07:39:27.267Z,57.495117
2019-05-30T07:40:36.380Z,58.917236
2019-05-30T07:41:45.895Z,59.851074
2019-05-30T07:42:56.414Z,58.337402
2019-05-30T07:44:05.933Z,59.069824
2019-05-30T07:45:15.440Z,61.401367
2019-05-30T07:46:24.948Z,61.907959
2019-05-30T07:47:34.494Z,62.011719
2019-05-30T07:48:43.995Z,60.491943
2019-05-30T07:49:53.506Z,60.791016
2019-05-30T07:51:03.018Z,58.996582
2019-05-30T07:52:12.575Z,61.529541
2019-05-30T07:53:22.078Z,62.139893
2019-05-30T07:54:31.568Z,61.431885
2019-05-30T07:55:41.083Z,61.126709
2019-05-30T07:56:50.597Z,61.633301
2019-05-30T07:58:00.122Z,61.907959
2019-05-30T07:59:09.641Z,60.693359
2019-05-30T08:00:19.146Z,61.602783
2019-05-30T08:01:28.660Z,61.230469
2019-05-30T08:02:38.188Z,61.602783
2019-05-30T08:03:47.696Z,61.907959
2019-05-30T08:04:57.208Z,62.384033
2019-05-30T08:06:06.720Z,61.877441
2019-05-30T08:07:16.230Z,62.078857
2019-05-30T08:08:25.757Z,59.753418
2019-05-30T08:09:35.280Z,59.753418
2019-05-30T08:10:44.801Z,61.071777
2019-05-30T08:11:54.309Z,60.058594
2019-05-30T08:13:03.904Z,61.169434
2019-05-30T08:14:13.365Z,60.864258
2019-05-30T08:15:22.885Z,59.954834
2019-05-30T08:16:33.296Z,59.7229
2019-05-30T08:17:44.367Z,59.625244
2019-05-30T08:18:52.384Z,59.320068
2019-05-30T08:20:01.895Z,60.198975
2019-05-30T08:21:11.488Z,59.667969
2019-05-30T08:22:20.940Z,58.856201
2019-05-30T08:23:30.493Z,60.650635
2019-05-30T08:24:40.029Z,57.965088
2019-05-30T08:25:49.539Z,55.92041
2019-05-30T08:26:59.059Z,56.121826
2019-05-30T08:28:08.590Z,57.507324
2019-05-30T08:29:18.093Z,56.573486
2019-05-30T08:30:28.281Z,57.080078
2019-05-30T08:31:37.127Z,55.163574
2019-05-30T08:32:46.655Z,56.976318
2019-05-30T08:33:56.173Z,56.774902
2019-05-30T08:35:05.686Z,58.48999
2019-05-30T08:36:15.226Z,57.281494
2019-05-30T08:37:25.732Z,54.888916
2019-05-30T08:38:37.370Z,56.604004
2019-05-30T08:39:45.713Z,55.114746
2019-05-30T08:40:55.224Z,56.323242
2019-05-30T08:42:04.739Z,55.847168
2019-05-30T08:43:14.262Z,56.25
2019-05-30T08:44:23.771Z,56.25
2019-05-30T08:45:33.620Z,56.35376
2019-05-30T08:46:42.772Z,54.35791
2019-05-30T08:47:52.291Z,54.052734
2019-05-30T08:49:02.019Z,54.382324
2019-05-30T08:50:11.312Z,51.757812
2019-05-30T08:51:20.823Z,52.893066
2019-05-30T08:52:30.420Z,52.893066
2019-05-30T08:53:40.643Z,54.815674
2019-05-30T08:54:49.377Z,53.320312
2019-05-30T08:55:58.886Z,52.813721
2019-05-30T08:57:08.390Z,52.612305
2019-05-30T08:58:17.910Z,51.904297
2019-05-30T08:59:27.416Z,53.521729
2019-05-30T09:00:36.918Z,51.904297
2019-05-30T09:01:51.243Z,52.130127
2019-05-30T09:02:56.969Z,54.35791
2019-05-30T09:04:06.509Z,53.753662
2019-05-30T09:05:16.017Z,54.864502
2019-05-30T09:06:25.542Z,54.864502
2019-05-30T09:07:36.318Z,54.052734
2019-05-30T09:08:46.345Z,54.663086
2019-05-30T09:09:55.074Z,55.145264
2019-05-30T09:11:04.578Z,57.470703
2019-05-30T09:12:14.104Z,58.282471
2019-05-30T09:13:23.633Z,58.251953
2019-05-30T09:14:33.143Z,58.148193
2019-05-30T09:15:45.168Z,58.123779
2019-05-30T09:16:53.150Z,54.992676
2019-05-30T09:18:02.660Z,54.486084
2019-05-30T09:19:12.176Z,54.992676
2019-05-30T09:20:21.687Z,55.395508
2019-05-30T09:21:31.204Z,53.979492
2019-05-30T09:22:41.773Z,56.402588
2019-05-30T09:23:50.271Z,53.674316
2019-05-30T09:25:00.709Z,51.025391
2019-05-30T09:26:10.220Z,52.032471
2019-05-30T09:27:19.729Z,52.941895
2019-05-30T09:28:29.305Z,52.13623
2019-05-30T09:29:39.582Z,50.695801
2019-05-30T09:30:49.226Z,51.885986
2019-05-30T09:31:58.743Z,51.708984
2019-05-30T09:33:08.268Z,53.57666
2019-05-30T09:34:17.809Z,53.320312
2019-05-30T09:35:27.324Z,50.500488
2019-05-30T09:36:36.834Z,52.264404
2019-05-30T09:37:47.603Z,49.926758
2019-05-30T09:38:56.552Z,49.371338
2019-05-30T09:40:06.106Z,49.42627
2019-05-30T09:41:15.617Z,49.884033
2019-05-30T09:42:25.121Z,50.537109
2019-05-30T09:43:34.640Z,46.057129
2019-05-30T09:44:47.987Z,46.636963
2019-05-30T09:45:55.632Z,43.95752
2019-05-30T09:47:05.138Z,42.797852
2019-05-30T09:48:14.645Z,44.262695
2019-05-30T09:49:24.175Z,45.98999
2019-05-30T09:50:33.671Z,44.848633
2019-05-30T09:51:43.973Z,46.380615
2019-05-30T09:52:52.677Z,46.704102
2019-05-30T09:54:02.213Z,47.20459
2019-05-30T09:55:11.721Z,47.332764
2019-05-30T09:56:21.226Z,46.325684
2019-05-30T09:57:30.734Z,46.343994
2019-05-30T09:58:42.204Z,45.843506
2019-05-30T09:59:52.120Z,46.77124
2019-05-30T10:01:00.255Z,47.601318
2019-05-30T10:02:09.762Z,47.399902
2019-05-30T10:03:19.295Z,48.706055
2019-05-30T10:04:28.823Z,50.018311
2019-05-30T10:05:38.330Z,51.611328
2019-05-30T10:06:48.852Z,51.104736
2019-05-30T10:07:58.358Z,48.907471
2019-05-30T10:09:07.901Z,47.698975
2019-05-30T10:10:17.405Z,50.091553
2019-05-30T10:11:26.958Z,51.806641
2019-05-30T10:12:36.451Z,52.233887
2019-05-30T10:13:47.443Z,52.539062
2019-05-30T10:14:57.072Z,52.764893
2019-05-30T10:16:05.968Z,52.258301
2019-05-30T10:17:15.483Z,52.966309
2019-05-30T10:18:25.001Z,53.875732
2019-05-30T10:19:34.520Z,52.990723
2019-05-30T10:20:44.413Z,53.601074
2019-05-30T10:21:54.502Z,55.114746
2019-05-30T10:23:04.007Z,55.114746
2019-05-30T10:24:13.563Z,55.291748
2019-05-30T10:25:23.140Z,54.35791
2019-05-30T10:26:32.605Z,54.632568
2019-05-30T10:27:42.115Z,53.826904
2019-05-30T10:28:53.315Z,52.636719
2019-05-30T10:30:02.129Z,53.070068
2019-05-30T10:31:11.648Z,52.636719
2019-05-30T10:32:21.175Z,53.546143
2019-05-30T10:33:30.725Z,53.753662
2019-05-30T10:34:40.237Z,53.723145
2019-05-30T10:35:51.592Z,53.094482
2019-05-30T10:37:00.281Z,52.410889
2019-05-30T10:38:09.810Z,52.740479
2019-05-30T10:39:19.320Z,53.546143
2019-05-30T10:40:31.900Z,52.514648
2019-05-30T10:41:38.350Z,52.587891
2019-05-30T10:42:49.208Z,52.893066
2019-05-30T10:43:58.329Z,52.490234
2019-05-30T10:45:07.849Z,51.074219
2019-05-30T10:46:17.358Z,50.469971
2019-05-30T10:47:26.997Z,52.789307
2019-05-30T10:48:36.535Z,52.667236
2019-05-30T10:49:46.686Z,51.837158
2019-05-30T10:50:56.566Z,48.986816
2019-05-30T10:52:06.076Z,48.66333
2019-05-30T10:53:15.595Z,48.840332
2019-05-30T10:54:25.099Z,49.420166
2019-05-30T10:55:34.635Z,47.161865
2019-05-30T10:56:45.130Z,46.716309
2019-05-30T10:57:57.887Z,46.868896
2019-05-30T10:59:05.149Z,45.019531
2019-05-30T11:00:14.731Z,47.20459
2019-05-30T11:01:24.238Z,45.202637
2019-05-30T11:02:33.766Z,45.202637
2019-05-30T11:03:43.279Z,43.078613
2019-05-30T11:04:54.941Z,43.157959
2019-05-30T11:06:03.377Z,45.135498
2019-05-30T11:07:12.844Z,44.116211
2019-05-30T11:08:22.364Z,42.51709
2019-05-30T11:09:31.901Z,42.614746
2019-05-30T11:10:41.458Z,43.591309
2019-05-30T11:11:51.000Z,43.670654
2019-05-30T11:13:05.770Z,43.432617
2019-05-30T11:14:10.980Z,44.689941
2019-05-30T11:15:20.498Z,42.352295
2019-05-30T11:16:30.041Z,39.996338
2019-05-30T11:17:39.606Z,40.435791
2019-05-30T11:18:50.962Z,40.991211
2019-05-30T11:19:59.617Z,40.9729
2019-05-30T11:21:09.134Z,40.155029
2019-05-30T11:22:18.696Z,41.73584
2019-05-30T11:23:28.215Z,39.916992
2019-05-30T11:24:37.978Z,40.515137
2019-05-30T11:25:48.462Z,44.207764
2019-05-30T11:26:58.873Z,41.296387
2019-05-30T11:28:07.325Z,41.357422
2019-05-30T11:29:16.816Z,42.474365
2019-05-30T11:30:26.388Z,43.09082
2019-05-30T11:31:35.900Z,43.115234
2019-05-30T11:32:45.403Z,45.495605
2019-05-30T11:33:56.895Z,44.012451
2019-05-30T11:35:05.370Z,44.213867
2019-05-30T11:36:14.901Z,44.335938
2019-05-30T11:37:24.415Z,42.956543
2019-05-30T11:38:33.942Z,44.476318
2019-05-30T11:39:43.463Z,43.859863
2019-05-30T11:40:53.342Z,47.296143
2019-05-30T11:42:02.498Z,46.087646
2019-05-30T11:43:12.055Z,48.699951
2019-05-30T11:44:21.522Z,48.278809
2019-05-30T11:45:31.039Z,46.447754
2019-05-30T11:46:40.552Z,46.624756
2019-05-30T11:47:50.056Z,46.124268
2019-05-30T11:49:00.020Z,47.229004
2019-05-30T11:50:12.192Z,45.703125
2019-05-30T11:51:18.599Z,43.817139
2019-05-30T11:52:28.123Z,44.744873
2019-05-30T11:53:37.629Z,45.446777
2019-05-30T11:54:47.149Z,44.744873
2019-05-30T11:55:56.671Z,46.551514
2019-05-30T11:57:06.188Z,47.30835
2019-05-30T11:58:19.278Z,41.711426
2019-05-30T11:59:25.248Z,43.493652
2019-05-30T12:00:34.797Z,41.955566
2019-05-30T12:01:44.317Z,42.39502
2019-05-30T12:02:54.289Z,40.161133
2019-05-30T12:04:03.357Z,38.964844
2019-05-30T12:05:12.860Z,39.123535
2019-05-30T12:06:22.384Z,39.007568
2019-05-30T12:07:36.055Z,38.61084
2019-05-30T12:08:42.381Z,38.574219
2019-05-30T12:09:52.843Z,37.823486
2019-05-30T12:11:01.530Z,36.791992
2019-05-30T12:12:10.945Z,35.821533
2019-05-30T12:13:20.469Z,36.474609
2019-05-30T12:14:29.992Z,39.801025
2019-05-30T12:15:39.564Z,39.117432
2019-05-30T12:16:49.104Z,36.773682
2019-05-30T12:17:59.514Z,37.634277
2019-05-30T12:19:08.117Z,38.989258
2019-05-30T12:20:17.658Z,37.475586
2019-05-30T12:21:29.794Z,35.040283
2019-05-30T12:22:36.738Z,37.164307
2019-05-30T12:23:47.263Z,36.871338
2019-05-30T12:24:57.761Z,36.407471
2019-05-30T12:26:07.330Z,34.912109
2019-05-30T12:27:16.974Z,37.084961
2019-05-30T12:28:26.445Z,35.339355
2019-05-30T12:29:35.991Z,35.473633
2019-05-30T12:30:55.652Z,36.767578
2019-05-30T12:31:58.389Z,35.5896
2019-05-30T12:33:06.466Z,34.991455
2019-05-30T12:34:16.094Z,35.638428
2019-05-30T12:35:25.604Z,34.844971
2019-05-30T12:36:35.121Z,37.109375
2019-05-30T12:37:54.589Z,38.165283
2019-05-30T12:38:56.271Z,39.788818
2019-05-30T12:40:05.605Z,39.123535
2019-05-30T12:41:15.113Z,38.842773
2019-05-30T12:42:24.708Z,40.063477
2019-05-30T12:43:34.219Z,41.290283
2019-05-30T12:44:43.782Z,41.290283
2019-05-30T12:45:53.294Z,41.790771
2019-05-30T12:47:03.469Z,41.589355
2019-05-30T12:48:12.452Z,41.790771
2019-05-30T12:49:22.048Z,42.39502
2019-05-30T12:50:31.573Z,42.39502
2019-05-30T12:51:41.114Z,40.887451
2019-05-30T12:52:50.619Z,41.473389
2019-05-30T12:54:00.480Z,41.149902
2019-05-30T12:55:09.665Z,42.553711
2019-05-30T12:56:19.190Z,42.352295
2019-05-30T12:57:28.714Z,44.07959
2019-05-30T12:58:38.317Z,42.779541
2019-05-30T12:59:47.862Z,44.104004
2019-05-30T13:00:58.656Z,45.709229
2019-05-30T13:02:07.953Z,44.909668
2019-05-30T13:03:17.471Z,44.683838
2019-05-30T13:04:27.003Z,44.561768
2019-05-30T13:05:36.523Z,44.866943
2019-05-30T13:06:46.033Z,43.457031
2019-05-30T13:08:11.653Z,44.482422
2019-05-30T13:09:07.346Z,43.780518
2019-05-30T13:10:16.568Z,43.17627
2019-05-30T13:11:26.136Z,43.237305
2019-05-30T13:12:35.676Z,40.631104
2019-05-30T13:13:45.224Z,39.477539
2019-05-30T13:14:55.475Z,38.366699
2019-05-30T13:16:07.034Z,38.287354
2019-05-30T13:17:14.001Z,34.82666